createdAt,value
2023-01-15T00:02:34.060Z,-1.71
2023-01-15T00:05:33.968Z,-1.69
2023-01-15T00:08:36.930Z,-1.75
2023-01-15T00:11:39.047Z,-1.79
2023-01-15T00:14:40.147Z,-1.81
2023-01-15T00:17:41.984Z,-1.84
2023-01-15T00:20:41.839Z,-1.87
2023-01-15T00:24:04.490Z,-1.87
2023-01-15T00:27:23.904Z,-1.83
2023-01-15T00:30:26.918Z,-1.83
2023-01-15T00:33:27.941Z,-1.80
2023-01-15T00:36:28.044Z,-1.77
2023-01-15T00:39:30.647Z,-1.76
2023-01-15T00:42:30.935Z,-1.76
2023-01-15T00:45:35.909Z,-1.76
2023-01-15T00:48:31.129Z,-1.80
2023-01-15T00:51:35.587Z,-1.81
2023-01-15T00:54:36.946Z,-1.83
2023-01-15T00:57:36.951Z,-1.84
2023-01-15T01:00:40.997Z,-1.84
2023-01-15T01:03:41.936Z,-1.81
2023-01-15T01:06:41.984Z,-1.81
2023-01-15T01:09:44.002Z,-1.82
2023-01-15T01:12:45.975Z,-1.81
2023-01-15T01:15:47.058Z,-1.81
2023-01-15T01:18:47.989Z,-1.83
2023-01-15T01:21:50.010Z,-1.86
2023-01-15T01:24:44.749Z,-1.83
2023-01-15T01:27:45.995Z,-1.84
2023-01-15T01:30:51.984Z,-1.83
2023-01-15T01:33:52.050Z,-1.81
2023-01-15T01:36:53.602Z,-1.77
2023-01-15T01:39:57.128Z,-1.74
2023-01-15T01:43:01.066Z,-1.75
2023-01-15T01:46:03.136Z,-1.77
2023-01-15T01:49:08.917Z,-1.77
2023-01-15T01:52:15.098Z,-1.79
2023-01-15T01:55:15.294Z,-1.77
2023-01-15T01:58:18.392Z,-1.72
2023-01-15T02:01:21.677Z,-1.74
2023-01-15T02:04:25.650Z,-1.73
2023-01-15T02:07:26.056Z,-1.74
2023-01-15T02:10:28.109Z,-1.72
2023-01-15T02:13:32.302Z,-1.71
2023-01-15T02:16:32.118Z,-1.69
2023-01-15T02:20:06.235Z,-1.66
2023-01-15T02:23:46.127Z,-1.64
2023-01-15T02:27:04.086Z,-1.63
2023-01-15T02:30:48.084Z,-1.64
2023-01-15T02:34:11.082Z,-1.67
2023-01-15T02:37:24.109Z,-1.73
2023-01-15T02:40:25.108Z,-1.72
2023-01-15T02:43:26.751Z,-1.72
2023-01-15T02:46:28.410Z,-1.69
2023-01-15T02:49:30.125Z,-1.67
2023-01-15T02:52:38.246Z,-1.65
2023-01-15T02:55:41.123Z,-1.64
2023-01-15T02:58:47.138Z,-1.65
2023-01-15T03:01:55.239Z,-1.66
2023-01-15T03:04:58.167Z,-1.63
2023-01-15T03:08:04.176Z,-1.62
2023-01-15T03:11:25.788Z,-1.62
2023-01-15T03:14:37.424Z,-1.66
2023-01-15T03:18:02.435Z,-1.70
2023-01-15T03:21:05.223Z,-1.70
2023-01-15T03:24:07.210Z,-1.70
2023-01-15T03:27:08.227Z,-1.69
2023-01-15T03:30:20.256Z,-1.69
2023-01-15T03:33:23.453Z,-1.68
2023-01-15T03:36:24.171Z,-1.66
2023-01-15T03:39:27.279Z,-1.66
2023-01-15T03:43:28.251Z,-1.71
2023-01-15T03:47:05.293Z,-1.78
2023-01-15T03:50:37.303Z,-1.81
2023-01-15T03:53:53.275Z,-1.89
2023-01-15T03:57:10.236Z,-1.91
2023-01-15T04:00:12.209Z,-1.92
2023-01-15T04:03:18.096Z,-1.97
2023-01-15T04:06:21.293Z,-1.96
2023-01-15T04:09:21.413Z,-1.90
2023-01-15T04:12:25.282Z,-1.88
2023-01-15T04:15:26.297Z,-1.96
2023-01-15T04:18:30.376Z,-2.01
2023-01-15T04:21:31.567Z,-2.03
2023-01-15T04:24:32.282Z,-2.04
2023-01-15T04:27:27.439Z,-2.07
2023-01-15T04:30:30.294Z,-2.08
2023-01-15T04:33:32.318Z,-2.05
2023-01-15T04:36:34.449Z,-2.07
2023-01-15T04:39:34.400Z,-2.10
2023-01-15T04:42:54.356Z,-2.09
2023-01-15T04:45:58.388Z,-2.06
2023-01-15T04:48:59.399Z,-2.06
2023-01-15T04:52:04.328Z,-2.04
2023-01-15T04:55:08.297Z,-2.07
2023-01-15T04:58:09.373Z,-2.12
2023-01-15T05:01:12.449Z,-2.13
2023-01-15T05:04:12.413Z,-2.09
2023-01-15T05:07:17.379Z,-2.05
2023-01-15T05:10:18.346Z,-2.01
2023-01-15T05:13:19.435Z,-1.98
2023-01-15T05:16:24.357Z,-1.97
2023-01-15T05:19:30.395Z,-1.97
2023-01-15T05:22:34.310Z,-1.94
2023-01-15T05:25:52.824Z,-1.97
2023-01-15T05:28:52.396Z,-1.98
2023-01-15T05:31:54.649Z,-2.02
2023-01-15T05:34:56.914Z,-2.08
2023-01-15T05:37:57.578Z,-2.10
2023-01-15T05:40:58.429Z,-2.11
2023-01-15T05:43:58.393Z,-2.10
2023-01-15T05:46:58.421Z,-2.05
2023-01-15T05:49:59.525Z,-2.02
2023-01-15T05:53:02.022Z,-1.99
2023-01-15T05:56:02.506Z,-2.00
2023-01-15T05:59:02.476Z,-2.04
2023-01-15T06:02:02.532Z,-2.08
2023-01-15T06:05:04.550Z,-2.10
2023-01-15T06:08:05.486Z,-2.09
2023-01-15T06:11:05.434Z,-2.09
2023-01-15T06:14:05.544Z,-2.11
2023-01-15T06:17:07.617Z,-2.13
2023-01-15T06:20:07.495Z,-2.10
2023-01-15T06:23:10.533Z,-2.10
2023-01-15T06:26:14.544Z,-2.12
2023-01-15T06:29:15.482Z,-2.10
2023-01-15T06:32:16.523Z,-2.12
2023-01-15T06:35:18.505Z,-2.12
2023-01-15T06:38:19.722Z,-2.12
2023-01-15T06:41:59.607Z,-2.09
2023-01-15T06:45:21.304Z,-2.03
2023-01-15T06:48:22.565Z,-2.01
2023-01-15T06:51:38.062Z,-2.00
2023-01-15T06:54:42.426Z,-1.98
2023-01-15T06:57:42.550Z,-1.97
2023-01-15T07:00:43.629Z,-1.93
2023-01-15T07:03:43.586Z,-1.89
2023-01-15T07:06:45.027Z,-1.87
2023-01-15T07:09:48.667Z,-1.87
2023-01-15T07:12:50.714Z,-1.84
2023-01-15T07:15:53.590Z,-1.83
2023-01-15T07:18:53.567Z,-1.78
2023-01-15T07:21:53.575Z,-1.71
2023-01-15T07:24:53.625Z,-1.68
2023-01-15T07:27:54.572Z,-1.63
2023-01-15T07:30:57.624Z,-1.58
2023-01-15T07:33:57.735Z,-1.54
2023-01-15T07:36:57.633Z,-1.53
2023-01-15T07:39:57.636Z,-1.50
2023-01-15T07:43:15.610Z,-1.44
2023-01-15T07:46:34.640Z,-1.40
2023-01-15T07:49:52.634Z,-1.39
2023-01-15T07:52:53.369Z,-1.39
2023-01-15T07:55:53.609Z,-1.38
2023-01-15T07:58:56.648Z,-1.36
2023-01-15T08:01:56.752Z,-1.38
2023-01-15T08:04:59.681Z,-1.38
2023-01-15T08:07:59.661Z,-1.35
2023-01-15T08:11:18.722Z,-1.29
2023-01-15T08:14:41.958Z,-1.23
2023-01-15T08:17:46.797Z,-1.21
2023-01-15T08:20:47.674Z,-1.17
2023-01-15T08:23:52.335Z,-1.12
2023-01-15T08:26:52.703Z,-1.06
2023-01-15T08:29:54.716Z,-0.99
2023-01-15T08:32:56.382Z,-0.99
2023-01-15T08:35:57.695Z,-1.01
2023-01-15T08:38:58.819Z,-1.02
2023-01-15T08:42:02.875Z,-1.04
2023-01-15T08:45:02.750Z,-1.07
2023-01-15T08:48:04.808Z,-1.03
2023-01-15T08:51:05.733Z,-1.06
2023-01-15T08:54:09.704Z,-1.07
2023-01-15T08:57:12.838Z,-1.08
2023-01-15T09:00:12.731Z,-1.08
2023-01-15T09:03:13.420Z,-1.08
2023-01-15T09:06:17.864Z,-1.03
2023-01-15T09:09:20.595Z,-1.04
2023-01-15T09:12:21.735Z,-0.99
2023-01-15T09:15:21.781Z,-0.99
2023-01-15T09:18:24.769Z,-1.00
2023-01-15T09:21:24.770Z,-1.00
2023-01-15T09:24:27.803Z,-0.96
2023-01-15T09:27:30.038Z,-0.93
2023-01-15T09:30:32.862Z,-0.96
2023-01-15T09:33:33.841Z,-0.98
2023-01-15T09:36:46.110Z,-0.97
2023-01-15T09:40:00.415Z,-0.95
2023-01-15T09:43:05.822Z,-0.93
2023-01-15T09:46:15.904Z,-0.93
2023-01-15T09:49:45.897Z,-0.86
2023-01-15T09:52:58.383Z,-0.77
2023-01-15T09:56:00.835Z,-0.74
2023-01-15T13:42:29.353Z,-1.14
2023-01-15T13:45:41.256Z,-1.30
2023-01-15T13:48:48.244Z,-1.41
2023-01-15T13:51:50.281Z,-1.45
2023-01-15T13:54:54.283Z,-1.43
2023-01-15T13:58:00.657Z,-1.44
2023-01-15T14:01:01.511Z,-1.43
2023-01-15T14:04:18.286Z,-1.42
2023-01-15T14:07:30.321Z,-1.41
2023-01-15T14:10:31.385Z,-1.38
2023-01-15T14:13:54.425Z,-1.38
2023-01-15T14:17:07.303Z,-1.41
2023-01-15T14:20:10.328Z,-1.44
2023-01-15T14:23:52.486Z,-1.49
2023-01-15T14:27:26.356Z,-1.57
2023-01-15T14:30:42.316Z,-1.55
2023-01-15T14:33:52.594Z,-1.56
2023-01-15T14:37:11.321Z,-1.59
2023-01-15T14:40:15.397Z,-1.61
2023-01-15T14:43:20.347Z,-1.63
2023-01-15T14:46:26.393Z,-1.66
2023-01-15T14:49:42.409Z,-1.69
2023-01-15T14:52:44.615Z,-1.72
2023-01-15T14:55:46.387Z,-1.73
2023-01-15T14:59:01.912Z,-1.74
2023-01-15T15:02:05.548Z,-1.74
2023-01-15T15:05:08.607Z,-1.76
2023-01-15T15:08:08.459Z,-1.76
2023-01-15T15:11:10.401Z,-1.74
2023-01-15T15:14:13.749Z,-1.71
2023-01-15T15:17:14.398Z,-1.69
2023-01-15T15:21:05.655Z,-1.70
2023-01-15T15:24:22.453Z,-1.73
2023-01-15T15:27:32.535Z,-1.76
2023-01-15T15:30:32.483Z,-1.75
2023-01-15T15:33:37.465Z,-1.73
2023-01-15T15:36:39.811Z,-1.72
2023-01-15T15:39:49.547Z,-1.73
2023-01-15T15:43:29.471Z,-1.76
2023-01-15T15:46:59.482Z,-1.77
2023-01-15T15:50:02.596Z,-1.78
2023-01-15T15:53:04.565Z,-1.76
2023-01-15T15:56:07.776Z,-1.72
2023-01-15T15:59:11.509Z,-1.69
2023-01-15T16:02:16.102Z,-1.71
2023-01-15T16:05:37.472Z,-1.69
2023-01-15T16:08:37.496Z,-1.68
2023-01-15T16:11:37.529Z,-1.67
2023-01-15T16:14:38.521Z,-1.67
2023-01-15T16:17:38.538Z,-1.66
2023-01-15T16:20:38.492Z,-1.64
2023-01-15T16:23:44.329Z,-1.64
2023-01-15T16:26:59.512Z,-1.64
2023-01-15T16:30:04.594Z,-1.68
2023-01-15T16:33:05.042Z,-1.73
2023-01-15T16:36:15.634Z,-1.75
2023-01-15T16:39:17.793Z,-1.75
2023-01-15T16:42:19.547Z,-1.75
2023-01-15T16:45:43.333Z,-1.74
2023-01-15T16:48:44.592Z,-1.75
2023-01-15T16:51:48.595Z,-1.78
2023-01-15T16:54:48.539Z,-1.81
2023-01-15T16:57:50.816Z,-1.84
2023-01-15T17:00:54.723Z,-1.86
2023-01-15T17:03:54.569Z,-1.87
2023-01-15T17:06:57.560Z,-1.88
2023-01-15T17:10:09.585Z,-1.90
2023-01-15T17:13:09.842Z,-1.91
2023-01-15T17:16:15.965Z,-1.90
2023-01-15T17:19:22.432Z,-1.91
2023-01-15T17:22:48.756Z,-1.93
2023-01-15T17:25:51.624Z,-1.94
2023-01-15T17:28:51.802Z,-1.93
2023-01-15T17:31:54.599Z,-1.93
2023-01-15T17:34:58.860Z,-1.91
2023-01-15T17:37:59.628Z,-1.88
2023-01-15T17:41:03.682Z,-1.89
2023-01-15T17:44:03.783Z,-1.90
2023-01-15T17:47:03.716Z,-1.86
2023-01-15T17:50:07.838Z,-1.86
2023-01-15T17:53:09.692Z,-1.84
2023-01-15T17:56:27.736Z,-1.83
2023-01-15T17:59:47.704Z,-1.85
2023-01-15T18:03:07.111Z,-1.89
2023-01-15T18:06:08.203Z,-1.90
2023-01-15T18:09:20.971Z,-1.91
2023-01-15T18:12:24.247Z,-1.92
2023-01-15T18:15:30.765Z,-1.96
2023-01-15T18:18:32.764Z,-2.01
2023-01-15T18:21:35.777Z,-2.04
2023-01-15T18:24:36.737Z,-2.04
2023-01-15T18:27:39.730Z,-2.02
2023-01-15T18:30:41.720Z,-2.03
2023-01-15T18:33:42.709Z,-2.01
2023-01-15T18:36:49.021Z,-2.01
2023-01-15T18:39:49.756Z,-2.03
2023-01-15T18:43:13.770Z,-2.04
2023-01-15T18:46:41.999Z,-2.08
2023-01-15T18:49:41.806Z,-2.09
2023-01-15T18:52:59.189Z,-2.08
2023-01-15T18:56:01.808Z,-2.11
2023-01-15T18:59:04.520Z,-2.13
2023-01-15T19:02:08.029Z,-2.16
2023-01-15T19:05:07.839Z,-2.20
2023-01-15T19:08:10.294Z,-2.23
2023-01-15T19:11:14.259Z,-2.25
2023-01-15T19:14:33.789Z,-2.27
2023-01-15T19:17:54.102Z,-2.26
2023-01-15T19:20:54.029Z,-2.28
2023-01-15T19:24:02.089Z,-2.28
2023-01-15T19:27:11.707Z,-2.27
2023-01-15T19:30:13.845Z,-2.24
2023-01-15T19:33:17.795Z,-2.23
2023-01-15T19:36:19.114Z,-2.27
2023-01-15T19:39:20.118Z,-2.27
2023-01-15T19:42:40.085Z,-2.25
2023-01-15T19:45:58.197Z,-2.24
2023-01-15T19:49:18.021Z,-2.20
2023-01-15T19:52:38.119Z,-2.15
2023-01-15T19:55:43.880Z,-2.11
2023-01-15T19:58:46.136Z,-2.09
2023-01-15T20:01:46.990Z,-2.09
2023-01-15T20:04:46.889Z,-2.10
2023-01-15T20:07:47.861Z,-2.12
2023-01-15T20:10:54.917Z,-2.13
2023-01-15T20:13:56.233Z,-2.14
2023-01-15T20:16:57.034Z,-2.15
2023-01-15T20:19:57.958Z,-2.16
2023-01-15T20:22:59.060Z,-2.16
2023-01-15T20:25:59.961Z,-2.13
2023-01-15T20:28:59.880Z,-2.11
2023-01-15T20:31:59.967Z,-2.09
2023-01-15T20:35:00.338Z,-2.07
2023-01-15T20:38:04.426Z,-2.09
2023-01-15T20:41:28.253Z,-2.12
2023-01-15T20:44:46.376Z,-2.11
2023-01-15T20:48:08.328Z,-2.11
2023-01-15T20:51:08.024Z,-2.15
2023-01-15T20:54:08.975Z,-2.16
2023-01-15T20:57:11.969Z,-2.16
2023-01-15T21:00:12.011Z,-2.16
2023-01-15T21:03:12.986Z,-2.16
2023-01-15T21:06:12.978Z,-2.17
2023-01-15T21:09:13.996Z,-2.18
2023-01-15T21:12:15.135Z,-2.19
2023-01-15T21:15:08.081Z,-2.25
2023-01-15T21:18:09.529Z,-2.30
2023-01-15T21:21:11.025Z,-2.31
2023-01-15T21:24:13.042Z,-2.28
2023-01-15T21:27:16.103Z,-2.30
2023-01-15T21:30:17.030Z,-2.30
2023-01-15T21:33:17.340Z,-2.27
2023-01-15T21:36:21.000Z,-2.23
2023-01-15T21:39:22.049Z,-2.24
2023-01-15T21:42:51.126Z,-2.29
2023-01-15T21:45:53.134Z,-2.29
2023-01-15T21:48:53.078Z,-2.30
2023-01-15T21:51:54.064Z,-2.28
2023-01-15T21:54:54.036Z,-2.26
2023-01-15T21:57:55.116Z,-2.25
2023-01-15T22:00:56.086Z,-2.25
2023-01-15T22:03:57.058Z,-2.26
2023-01-15T22:07:00.059Z,-2.25
2023-01-15T22:10:00.129Z,-2.25
2023-01-15T22:13:03.110Z,-2.25
2023-01-15T22:16:07.154Z,-2.26
2023-01-15T22:19:08.246Z,-2.27
2023-01-15T22:22:16.458Z,-2.27
2023-01-15T22:25:19.140Z,-2.30
2023-01-15T22:28:20.394Z,-2.29
2023-01-15T22:31:24.091Z,-2.27
2023-01-15T22:34:24.116Z,-2.25
2023-01-15T22:37:26.189Z,-2.25
2023-01-15T22:40:29.168Z,-2.25
2023-01-15T22:43:29.176Z,-2.25
2023-01-15T22:46:29.151Z,-2.24
2023-01-15T22:49:30.225Z,-2.24
2023-01-15T22:52:31.207Z,-2.23
2023-01-15T22:55:35.325Z,-2.22
2023-01-15T22:58:36.151Z,-2.23
2023-01-15T23:01:45.653Z,-2.24
2023-01-15T23:04:47.285Z,-2.25
2023-01-15T23:07:49.207Z,-2.24
2023-01-15T23:10:52.651Z,-2.25
2023-01-15T23:13:55.180Z,-2.25
2023-01-15T23:16:58.212Z,-2.25
2023-01-15T23:19:58.205Z,-2.27
2023-01-15T23:22:59.543Z,-2.27
2023-01-15T23:26:00.206Z,-2.26
2023-01-15T23:29:00.224Z,-2.25
2023-01-15T23:32:00.217Z,-2.25
2023-01-15T23:35:00.258Z,-2.24
2023-01-15T23:38:02.326Z,-2.24
2023-01-15T23:41:02.224Z,-2.22
2023-01-15T23:44:22.315Z,-2.20
2023-01-15T23:47:23.334Z,-2.20
2023-01-15T23:50:24.216Z,-2.20
2023-01-15T23:53:25.261Z,-2.18
2023-01-15T23:56:26.225Z,-2.17
2023-01-15T23:59:28.233Z,-2.17
